Pagrindinis puslapis
METAR-TAF:

METAR-TAF

Oro uostai :

Abidžanas, Dramblio Kaulo Krantas

platuma: 05-15N, ilguma: 003-56W, Aukštis: 7 m

Dabartinis oras

Ataskaita buvo paskelbta 17 minutes, ne 06:30 UTC
Ramus vėjas
Temperatūra 27°C
Drėgmė 89%
Slėgis 1010 hPa
Matomumas 10 km arba daugiau
Išsisklaidę debesys ne aukštis 1200 ft

METAR: DIAP 140630Z 00000KT 9999 SCT012 27/25 Q1010 NOSIG

Laikas: 06:47 (06:47 UTC)

Prognozė

Ataskaita buvo paskelbta 1 valandą ir 47 minutes, ne 05:00 UTC
Prognozė galioja nuo 14 metu 06 UTC su 15 metu 12 UTC
Vėjas 3 kt nuo kintamojo kryptimis
Matomumas 10 km arba daugiau
Išsisklaidę debesys ne aukštis 1200 ft
Tapsmas
nuo 14 metu 12 UTC su 14 metu 13 UTC
Vėjas 10 kt iš Pietvakarių
Tikimybė 40% :
Laikinai
nuo 14 metu 15 UTC su 14 metu 20 UTC
Su prošvaistėmis ne aukštis 1300 ft
Mažai debesys ne aukštis 2000 ft, Liūtiniai kamuoliniai debesys.
perkūnija,

TAF: DIAP 140500Z 1406/1512 VRB03KT 9999 SCT012 BECMG 1412/1413 23010KT PROB40 TEMPO 1415/1420 TS BKN013 FEW020CB

Orai ataskaitas ir orų prognozės (METAR, TAF).

turimą stotys yra geltonos ir raudonos taškus žemėlapyje.

Perkelti pele per norėdami pamatyti stoties vardą.

Tada spustelėkite, norėdami matyti oro stebėjimo ir prognozės.

Norėdami pakeisti žemėlapį: spustelėkite ant žalios mygtukų su juodo kryžiaus žemyn,; žalią mygtuką su brūkšneliu, jei norite nutolinti; arba žalių rodyklių gretimoms žemėlapius.


METAR-TAF: